createdAt,value
2023-03-23T15:58:26.491Z,50.92
2023-03-23T16:00:54.518Z,51.07
2023-03-23T16:03:27.781Z,51.05
2023-03-23T16:05:55.648Z,51.23
2023-03-23T16:08:23.170Z,51.35
2023-03-23T16:10:51.292Z,51.46
2023-03-23T16:13:18.508Z,51.63
2023-03-23T16:15:46.321Z,51.82
2023-03-23T16:18:21.828Z,52.02
2023-03-23T16:20:50.191Z,52.20
2023-03-23T16:23:19.882Z,52.41
2023-03-23T16:25:47.017Z,52.59
2023-03-23T16:28:15.477Z,52.79
2023-03-23T16:30:45.641Z,52.99
2023-03-23T16:33:13.039Z,53.28
2023-03-23T16:35:40.333Z,53.59
2023-03-23T16:38:09.292Z,53.63
2023-03-23T16:40:38.504Z,53.78
2023-03-23T16:43:08.456Z,53.98
2023-03-23T16:45:36.796Z,54.12
2023-03-23T16:48:04.198Z,54.37
2023-03-23T16:50:32.272Z,54.50
2023-03-23T16:52:59.676Z,54.57
2023-03-23T16:55:27.317Z,54.79
2023-03-23T16:58:05.411Z,54.95
2023-03-23T17:00:41.051Z,55.13
2023-03-23T17:03:09.098Z,55.43
2023-03-23T17:05:38.588Z,55.54
2023-03-23T17:08:07.550Z,55.68
2023-03-23T17:10:35.489Z,56.02
2023-03-23T17:13:03.184Z,56.06
2023-03-23T17:15:30.260Z,56.38
2023-03-23T17:17:58.110Z,56.62
2023-03-23T17:20:25.869Z,56.84
2023-03-23T17:22:53.154Z,57.00
2023-03-23T17:25:20.439Z,57.16
2023-03-23T17:27:47.510Z,57.35
2023-03-23T17:30:15.516Z,57.61
2023-03-23T17:32:42.864Z,57.78
2023-03-23T17:35:12.495Z,58.00
2023-03-23T17:37:39.929Z,58.26
2023-03-23T17:40:10.345Z,58.32
2023-03-23T17:42:38.096Z,58.40
2023-03-23T17:45:06.434Z,58.47
2023-03-23T17:47:34.288Z,58.68
2023-03-23T17:50:11.519Z,58.88
2023-03-23T17:52:40.137Z,58.89
2023-03-23T17:55:08.457Z,59.00
2023-03-23T17:57:36.262Z,59.08
2023-03-23T18:00:04.171Z,59.13
2023-03-23T18:02:34.239Z,59.11
2023-03-23T18:05:01.555Z,59.34
2023-03-23T18:07:29.317Z,59.31
2023-03-23T18:10:00.745Z,59.45
2023-03-23T18:12:27.951Z,59.49
2023-03-23T18:14:59.136Z,59.57
2023-03-23T18:17:26.787Z,59.61
2023-03-23T18:19:54.130Z,59.73
2023-03-23T18:22:21.529Z,59.79
2023-03-23T18:24:48.917Z,59.84
2023-03-23T18:27:17.447Z,59.99
2023-03-23T18:29:45.165Z,59.89
2023-03-23T18:32:12.891Z,59.99
2023-03-23T18:34:41.799Z,60.10
2023-03-23T18:37:09.778Z,60.13
2023-03-23T18:39:37.059Z,60.13
2023-03-23T18:42:04.214Z,60.20
2023-03-23T18:44:31.940Z,60.33
2023-03-23T18:46:59.031Z,60.34
2023-03-23T18:49:26.426Z,60.48
2023-03-23T18:51:53.760Z,60.55
2023-03-23T18:54:22.139Z,60.61
2023-03-23T18:56:49.526Z,60.80
2023-03-23T18:59:17.144Z,61.05
2023-03-23T19:01:44.242Z,61.14
2023-03-23T19:04:13.726Z,61.13
2023-03-23T19:06:41.186Z,61.32
2023-03-23T19:09:08.337Z,61.19
2023-03-23T19:11:35.882Z,61.24
2023-03-23T19:14:03.819Z,61.31
2023-03-23T19:16:32.356Z,61.19
2023-03-23T19:19:10.363Z,61.18
2023-03-23T19:21:39.854Z,61.07
2023-03-23T19:24:09.094Z,60.97
2023-03-23T19:26:38.391Z,60.82
2023-03-23T19:31:36.468Z,60.50
2023-03-23T19:34:03.776Z,60.28
2023-03-23T19:36:31.438Z,60.20
2023-03-23T19:39:02.803Z,59.97
2023-03-23T19:41:30.552Z,59.89
2023-03-23T19:43:57.889Z,59.60
2023-03-23T19:46:27.012Z,59.56
2023-03-23T19:48:56.517Z,59.49
2023-03-23T19:51:24.414Z,59.33
2023-03-23T19:53:51.754Z,59.43
2023-03-23T19:56:21.639Z,59.34
2023-03-23T19:58:49.441Z,59.56
2023-03-23T20:01:20.407Z,59.22
2023-03-23T20:03:48.482Z,58.88
2023-03-23T20:06:17.828Z,58.66
2023-03-23T20:08:46.235Z,58.55
2023-03-23T20:11:14.884Z,58.64
2023-03-23T20:13:42.659Z,58.80
2023-03-23T20:16:11.818Z,58.91
2023-03-23T20:18:40.549Z,59.31
2023-03-23T20:21:11.993Z,59.58
2023-03-23T20:23:40.561Z,59.88
2023-03-23T20:26:12.301Z,60.19
2023-03-23T20:28:40.800Z,60.61
2023-03-23T20:31:19.955Z,60.77
2023-03-23T20:34:00.572Z,61.19
2023-03-23T20:36:29.958Z,61.44
2023-03-23T20:38:58.011Z,61.55
2023-03-23T20:41:25.752Z,61.78
2023-03-23T20:43:52.999Z,61.79
2023-03-23T20:46:21.696Z,62.05
2023-03-23T20:48:51.802Z,62.14
2023-03-23T20:51:23.270Z,62.13
2023-03-23T20:53:51.140Z,62.38
2023-03-23T20:56:19.772Z,62.48
2023-03-23T20:58:47.976Z,62.55
2023-03-23T21:01:22.819Z,62.70
2023-03-23T21:03:54.373Z,62.80
2023-03-23T21:06:22.230Z,62.91
2023-03-23T21:08:52.576Z,63.13
2023-03-23T21:11:22.312Z,63.21
2023-03-23T21:13:50.739Z,63.20
2023-03-23T21:16:19.379Z,63.49
2023-03-23T21:18:47.776Z,63.61
2023-03-23T21:21:18.469Z,63.55
2023-03-23T21:23:52.258Z,63.61
2023-03-23T21:26:21.668Z,63.64
2023-03-23T21:28:50.925Z,63.84
2023-03-23T21:31:18.501Z,63.77
2023-03-23T21:33:46.099Z,63.78
2023-03-23T21:36:13.935Z,63.84
2023-03-23T21:38:41.702Z,63.92
2023-03-23T21:41:11.933Z,63.94
2023-03-23T21:43:40.724Z,63.91
2023-03-23T21:46:10.033Z,63.99
2023-03-23T21:48:38.822Z,63.84
2023-03-23T21:51:10.732Z,63.80
2023-03-23T21:53:38.009Z,63.92
2023-03-23T21:56:08.057Z,64.07
2023-03-23T21:58:35.636Z,64.11
2023-03-23T22:01:03.201Z,64.32
2023-03-23T22:03:32.831Z,64.38
2023-03-23T22:06:00.839Z,64.61
2023-03-23T22:08:30.669Z,64.47
2023-03-23T22:11:02.821Z,64.61
2023-03-23T22:13:30.532Z,64.70
2023-03-23T22:15:58.758Z,64.65
2023-03-23T22:18:26.215Z,64.64
2023-03-23T22:20:53.420Z,64.76
2023-03-23T22:23:20.870Z,64.90
2023-03-23T22:25:48.288Z,65.06
2023-03-23T22:28:15.481Z,65.33
2023-03-23T22:30:43.692Z,65.23
2023-03-23T22:33:17.826Z,65.33
2023-03-23T22:35:47.801Z,65.28
2023-03-23T22:38:15.223Z,65.39
2023-03-23T22:40:43.104Z,65.37
2023-03-23T22:43:10.853Z,65.31
2023-03-23T22:45:38.060Z,65.36
2023-03-23T22:48:08.262Z,65.30
2023-03-23T22:50:36.147Z,65.18
2023-03-23T22:53:03.535Z,65.19
2023-03-23T22:55:30.927Z,65.16
2023-03-23T22:57:58.786Z,65.10
2023-03-23T23:00:26.557Z,65.10
2023-03-23T23:02:53.948Z,65.18
2023-03-23T23:05:21.141Z,65.13
2023-03-23T23:07:48.352Z,65.04
2023-03-23T23:10:15.718Z,65.15
2023-03-23T23:12:45.739Z,65.28
2023-03-23T23:15:14.889Z,65.28
2023-03-23T23:17:43.168Z,65.25
2023-03-23T23:20:14.227Z,65.35
2023-03-23T23:22:43.126Z,65.23
2023-03-23T23:25:11.638Z,65.40
2023-03-23T23:27:38.879Z,65.59
2023-03-23T23:30:09.205Z,65.63
2023-03-23T23:32:36.640Z,65.63
2023-03-23T23:35:05.804Z,65.84
2023-03-23T23:37:33.218Z,65.78
2023-03-23T23:40:00.365Z,65.91
2023-03-23T23:42:27.604Z,66.00
2023-03-23T23:44:54.882Z,65.96
2023-03-23T23:47:22.464Z,66.08
2023-03-23T23:49:49.701Z,66.27
2023-03-23T23:52:16.821Z,66.35
2023-03-23T23:54:47.308Z,66.41
2023-03-23T23:57:15.595Z,66.43
2023-03-23T23:59:44.051Z,66.61
